sensor_id;sensor_type;location;lat;lon;timestamp;temperature;humidity
15951;DHT22;8074;48.112;11.570;2022-11-15T00:00:55;4.00;99.90
15951;DHT22;8074;48.112;11.570;2022-11-15T00:03:23;3.80;99.90
15951;DHT22;8074;48.112;11.570;2022-11-15T00:05:50;4.00;99.90
15951;DHT22;8074;48.112;11.570;2022-11-15T00:08:17;3.90;99.90
15951;DHT22;8074;48.112;11.570;2022-11-15T00:10:54;3.90;99.90
15951;DHT22;8074;48.112;11.570;2022-11-15T00:13:22;3.90;99.90
15951;DHT22;8074;48.112;11.570;2022-11-15T00:15:49;4.00;99.90
15951;DHT22;8074;48.112;11.570;2022-11-15T00:18:17;4.10;99.90
15951;DHT22;8074;48.112;11.570;2022-11-15T00:20:46;3.90;99.90
15951;DHT22;8074;48.112;11.570;2022-11-15T00:23:13;3.90;99.90
15951;DHT22;8074;48.112;11.570;2022-11-15T00:25:40;3.70;99.90
15951;DHT22;8074;48.112;11.570;2022-11-15T00:28:07;3.80;99.90
15951;DHT22;8074;48.112;11.570;2022-11-15T00:30:35;3.60;99.90
15951;DHT22;8074;48.112;11.570;2022-11-15T00:33:03;3.60;99.90
15951;DHT22;8074;48.112;11.570;2022-11-15T00:35:31;3.70;99.90
15951;DHT22;8074;48.112;11.570;2022-11-15T00:37:59;3.80;99.90
15951;DHT22;8074;48.112;11.570;2022-11-15T00:40:26;3.80;99.90
15951;DHT22;8074;48.112;11.570;2022-11-15T00:42:52;3.80;99.90
15951;DHT22;8074;48.112;11.570;2022-11-15T00:45:19;3.50;99.90
15951;DHT22;8074;48.112;11.570;2022-11-15T00:47:48;3.30;99.90
15951;DHT22;8074;48.112;11.570;2022-11-15T00:50:15;3.20;99.90
15951;DHT22;8074;48.112;11.570;2022-11-15T00:52:42;3.20;99.90
15951;DHT22;8074;48.112;11.570;2022-11-15T00:55:13;3.30;99.90
15951;DHT22;8074;48.112;11.570;2022-11-15T00:57:40;3.20;99.90
15951;DHT22;8074;48.112;11.570;2022-11-15T01:00:07;3.20;99.90
15951;DHT22;8074;48.112;11.570;2022-11-15T01:02:34;3.30;99.90
15951;DHT22;8074;48.112;11.570;2022-11-15T01:05:04;3.40;99.90
15951;DHT22;8074;48.112;11.570;2022-11-15T01:07:31;3.40;99.90
15951;DHT22;8074;48.112;11.570;2022-11-15T01:09:58;3.40;99.90
15951;DHT22;8074;48.112;11.570;2022-11-15T01:12:24;3.50;99.90
15951;DHT22;8074;48.112;11.570;2022-11-15T01:14:51;3.50;99.90
15951;DHT22;8074;48.112;11.570;2022-11-15T01:17:18;3.50;99.90
15951;DHT22;8074;48.112;11.570;2022-11-15T01:19:45;3.20;99.90
15951;DHT22;8074;48.112;11.570;2022-11-15T01:22:13;3.30;99.90
15951;DHT22;8074;48.112;11.570;2022-11-15T01:24:40;3.50;99.90
15951;DHT22;8074;48.112;11.570;2022-11-15T01:27:07;3.50;99.90
15951;DHT22;8074;48.112;11.570;2022-11-15T01:29:34;3.40;99.90
15951;DHT22;8074;48.112;11.570;2022-11-15T01:32:01;3.30;99.90
15951;DHT22;8074;48.112;11.570;2022-11-15T01:34:28;3.10;99.90
15951;DHT22;8074;48.112;11.570;2022-11-15T01:36:55;3.00;99.90
15951;DHT22;8074;48.112;11.570;2022-11-15T01:39:23;3.00;99.90
15951;DHT22;8074;48.112;11.570;2022-11-15T01:41:49;3.20;99.90
15951;DHT22;8074;48.112;11.570;2022-11-15T01:44:37;3.20;99.90
15951;DHT22;8074;48.112;11.570;2022-11-15T01:47:07;3.30;99.90
15951;DHT22;8074;48.112;11.570;2022-11-15T01:49:37;3.10;99.90
15951;DHT22;8074;48.112;11.570;2022-11-15T01:52:09;3.00;99.90
15951;DHT22;8074;48.112;11.570;2022-11-15T01:54:38;3.00;99.90
15951;DHT22;8074;48.112;11.570;2022-11-15T01:57:08;3.10;99.90
15951;DHT22;8074;48.112;11.570;2022-11-15T01:59:37;3.00;99.90
15951;DHT22;8074;48.112;11.570;2022-11-15T02:02:06;3.20;99.90
15951;DHT22;8074;48.112;11.570;2022-11-15T02:04:37;2.80;99.90
15951;DHT22;8074;48.112;11.570;2022-11-15T02:07:07;2.90;99.90
15951;DHT22;8074;48.112;11.570;2022-11-15T02:09:37;2.80;99.90
15951;DHT22;8074;48.112;11.570;2022-11-15T02:12:05;2.90;99.90
15951;DHT22;8074;48.112;11.570;2022-11-15T02:14:34;2.90;99.90
15951;DHT22;8074;48.112;11.570;2022-11-15T02:17:11;2.90;99.90
15951;DHT22;8074;48.112;11.570;2022-11-15T02:19:55;2.90;99.90
15951;DHT22;8074;48.112;11.570;2022-11-15T02:22:37;3.00;99.90
15951;DHT22;8074;48.112;11.570;2022-11-15T02:25:18;3.10;99.90
15951;DHT22;8074;48.112;11.570;2022-11-15T02:28:10;3.10;99.90
15951;DHT22;8074;48.112;11.570;2022-11-15T02:30:45;3.30;99.90
15951;DHT22;8074;48.112;11.570;2022-11-15T02:33:21;3.40;99.90
15951;DHT22;8074;48.112;11.570;2022-11-15T02:35:57;3.20;99.90
15951;DHT22;8074;48.112;11.570;2022-11-15T02:38:31;2.70;99.90
15951;DHT22;8074;48.112;11.570;2022-11-15T02:41:01;2.80;99.90
15951;DHT22;8074;48.112;11.570;2022-11-15T02:43:37;2.90;99.90
15951;DHT22;8074;48.112;11.570;2022-11-15T02:46:28;3.10;99.90
15951;DHT22;8074;48.112;11.570;2022-11-15T02:49:11;3.00;99.90
15951;DHT22;8074;48.112;11.570;2022-11-15T02:51:39;2.90;99.90
15951;DHT22;8074;48.112;11.570;2022-11-15T02:54:08;2.80;99.90
15951;DHT22;8074;48.112;11.570;2022-11-15T02:56:37;2.80;99.90
15951;DHT22;8074;48.112;11.570;2022-11-15T02:59:17;2.90;99.90
15951;DHT22;8074;48.112;11.570;2022-11-15T03:01:58;2.90;99.90
15951;DHT22;8074;48.112;11.570;2022-11-15T03:04:35;2.90;99.90
15951;DHT22;8074;48.112;11.570;2022-11-15T03:07:09;2.80;99.90
15951;DHT22;8074;48.112;11.570;2022-11-15T03:09:43;2.90;99.90
15951;DHT22;8074;48.112;11.570;2022-11-15T03:12:14;2.80;99.90
15951;DHT22;8074;48.112;11.570;2022-11-15T03:14:47;2.90;99.90
15951;DHT22;8074;48.112;11.570;2022-11-15T03:17:21;3.00;99.90
15951;DHT22;8074;48.112;11.570;2022-11-15T03:19:51;2.90;99.90
15951;DHT22;8074;48.112;11.570;2022-11-15T03:22:22;2.70;99.90
15951;DHT22;8074;48.112;11.570;2022-11-15T03:24:52;2.70;99.90
15951;DHT22;8074;48.112;11.570;2022-11-15T03:27:22;2.80;99.90
15951;DHT22;8074;48.112;11.570;2022-11-15T03:29:52;2.80;99.90
15951;DHT22;8074;48.112;11.570;2022-11-15T03:32:25;2.50;99.90
15951;DHT22;8074;48.112;11.570;2022-11-15T03:34:56;2.50;99.90
15951;DHT22;8074;48.112;11.570;2022-11-15T03:37:27;2.60;99.90
15951;DHT22;8074;48.112;11.570;2022-11-15T03:39:56;2.50;99.90
15951;DHT22;8074;48.112;11.570;2022-11-15T03:42:28;2.60;99.90
15951;DHT22;8074;48.112;11.570;2022-11-15T03:45:00;2.50;99.90
15951;DHT22;8074;48.112;11.570;2022-11-15T03:47:34;2.50;99.90
15951;DHT22;8074;48.112;11.570;2022-11-15T03:50:04;2.50;99.90
15951;DHT22;8074;48.112;11.570;2022-11-15T03:52:34;2.50;99.90
15951;DHT22;8074;48.112;11.570;2022-11-15T03:55:03;2.60;99.90
15951;DHT22;8074;48.112;11.570;2022-11-15T03:57:30;2.50;99.90
15951;DHT22;8074;48.112;11.570;2022-11-15T03:59:57;2.50;99.90
15951;DHT22;8074;48.112;11.570;2022-11-15T04:02:24;2.40;99.90
15951;DHT22;8074;48.112;11.570;2022-11-15T04:04:53;2.30;99.90
15951;DHT22;8074;48.112;11.570;2022-11-15T04:07:19;2.40;99.90
15951;DHT22;8074;48.112;11.570;2022-11-15T04:09:46;2.50;99.90
15951;DHT22;8074;48.112;11.570;2022-11-15T04:12:28;2.60;99.90
15951;DHT22;8074;48.112;11.570;2022-11-15T04:14:59;2.40;99.90
15951;DHT22;8074;48.112;11.570;2022-11-15T04:17:40;2.20;99.90
15951;DHT22;8074;48.112;11.570;2022-11-15T04:20:13;2.20;99.90
15951;DHT22;8074;48.112;11.570;2022-11-15T04:22:54;2.30;99.90
15951;DHT22;8074;48.112;11.570;2022-11-15T04:25:40;2.40;99.90
15951;DHT22;8074;48.112;11.570;2022-11-15T04:28:08;2.50;99.90
15951;DHT22;8074;48.112;11.570;2022-11-15T04:30:35;2.50;99.90
15951;DHT22;8074;48.112;11.570;2022-11-15T04:33:02;2.40;99.90
15951;DHT22;8074;48.112;11.570;2022-11-15T04:35:30;2.40;99.90
15951;DHT22;8074;48.112;11.570;2022-11-15T04:37:58;2.30;99.90
15951;DHT22;8074;48.112;11.570;2022-11-15T04:40:24;2.30;99.90
15951;DHT22;8074;48.112;11.570;2022-11-15T04:42:50;2.40;99.90
15951;DHT22;8074;48.112;11.570;2022-11-15T04:45:18;2.40;99.90
15951;DHT22;8074;48.112;11.570;2022-11-15T04:47:45;2.40;99.90
15951;DHT22;8074;48.112;11.570;2022-11-15T04:50:13;2.40;99.90
15951;DHT22;8074;48.112;11.570;2022-11-15T04:52:43;2.50;99.90
15951;DHT22;8074;48.112;11.570;2022-11-15T04:55:10;2.40;99.90
15951;DHT22;8074;48.112;11.570;2022-11-15T04:57:38;2.20;99.90
15951;DHT22;8074;48.112;11.570;2022-11-15T05:00:07;1.90;99.90
15951;DHT22;8074;48.112;11.570;2022-11-15T05:02:34;2.10;99.90
15951;DHT22;8074;48.112;11.570;2022-11-15T05:05:18;2.00;99.90
15951;DHT22;8074;48.112;11.570;2022-11-15T05:07:47;2.00;99.90
15951;DHT22;8074;48.112;11.570;2022-11-15T05:10:14;2.20;99.90
15951;DHT22;8074;48.112;11.570;2022-11-15T05:12:41;2.20;99.90
15951;DHT22;8074;48.112;11.570;2022-11-15T05:15:09;2.20;99.90
15951;DHT22;8074;48.112;11.570;2022-11-15T05:17:36;2.20;99.90
15951;DHT22;8074;48.112;11.570;2022-11-15T05:20:03;2.30;99.90
15951;DHT22;8074;48.112;11.570;2022-11-15T05:22:30;2.30;99.90
15951;DHT22;8074;48.112;11.570;2022-11-15T05:24:58;2.20;99.90
15951;DHT22;8074;48.112;11.570;2022-11-15T05:27:26;2.00;99.90
15951;DHT22;8074;48.112;11.570;2022-11-15T05:29:53;2.00;99.90
15951;DHT22;8074;48.112;11.570;2022-11-15T05:32:20;2.00;99.90
15951;DHT22;8074;48.112;11.570;2022-11-15T05:34:55;2.20;99.90
15951;DHT22;8074;48.112;11.570;2022-11-15T05:37:22;2.00;99.90
15951;DHT22;8074;48.112;11.570;2022-11-15T05:39:49;2.00;99.90
15951;DHT22;8074;48.112;11.570;2022-11-15T05:42:17;1.80;99.90
15951;DHT22;8074;48.112;11.570;2022-11-15T05:44:48;1.80;99.90
15951;DHT22;8074;48.112;11.570;2022-11-15T05:47:18;2.00;99.90
15951;DHT22;8074;48.112;11.570;2022-11-15T05:49:47;1.80;99.90
15951;DHT22;8074;48.112;11.570;2022-11-15T05:52:19;1.90;99.90
15951;DHT22;8074;48.112;11.570;2022-11-15T05:54:47;2.00;99.90
15951;DHT22;8074;48.112;11.570;2022-11-15T05:57:14;1.70;99.90
15951;DHT22;8074;48.112;11.570;2022-11-15T05:59:42;1.70;99.90
15951;DHT22;8074;48.112;11.570;2022-11-15T06:02:10;2.00;99.90
15951;DHT22;8074;48.112;11.570;2022-11-15T06:04:38;2.10;99.90
15951;DHT22;8074;48.112;11.570;2022-11-15T06:07:04;2.10;99.90
15951;DHT22;8074;48.112;11.570;2022-11-15T06:09:31;2.10;99.90
15951;DHT22;8074;48.112;11.570;2022-11-15T06:11:58;2.00;99.90
15951;DHT22;8074;48.112;11.570;2022-11-15T06:14:25;1.90;99.90
15951;DHT22;8074;48.112;11.570;2022-11-15T06:16:56;1.80;99.90
15951;DHT22;8074;48.112;11.570;2022-11-15T06:19:23;1.80;99.90
15951;DHT22;8074;48.112;11.570;2022-11-15T06:21:50;1.90;99.90
15951;DHT22;8074;48.112;11.570;2022-11-15T06:24:20;1.90;99.90
15951;DHT22;8074;48.112;11.570;2022-11-15T06:26:50;2.00;99.90
15951;DHT22;8074;48.112;11.570;2022-11-15T06:29:17;1.90;99.90
15951;DHT22;8074;48.112;11.570;2022-11-15T06:31:44;2.00;99.90
15951;DHT22;8074;48.112;11.570;2022-11-15T06:34:13;2.10;99.90
15951;DHT22;8074;48.112;11.570;2022-11-15T06:36:39;1.80;99.90
15951;DHT22;8074;48.112;11.570;2022-11-15T06:39:09;2.00;99.90
15951;DHT22;8074;48.112;11.570;2022-11-15T06:41:36;2.00;99.90
15951;DHT22;8074;48.112;11.570;2022-11-15T06:44:04;2.10;99.90
15951;DHT22;8074;48.112;11.570;2022-11-15T06:46:33;2.20;99.90
15951;DHT22;8074;48.112;11.570;2022-11-15T06:49:00;2.20;99.90
15951;DHT22;8074;48.112;11.570;2022-11-15T06:51:28;2.30;99.90
15951;DHT22;8074;48.112;11.570;2022-11-15T06:53:55;2.40;99.90
15951;DHT22;8074;48.112;11.570;2022-11-15T06:56:23;2.20;99.90
15951;DHT22;8074;48.112;11.570;2022-11-15T06:58:50;2.30;99.90
15951;DHT22;8074;48.112;11.570;2022-11-15T07:01:17;2.30;99.90
15951;DHT22;8074;48.112;11.570;2022-11-15T07:03:44;2.50;99.90
15951;DHT22;8074;48.112;11.570;2022-11-15T07:06:11;2.70;99.90
15951;DHT22;8074;48.112;11.570;2022-11-15T07:08:40;2.80;99.90
15951;DHT22;8074;48.112;11.570;2022-11-15T07:11:08;2.60;99.90
15951;DHT22;8074;48.112;11.570;2022-11-15T07:13:36;2.60;99.90
15951;DHT22;8074;48.112;11.570;2022-11-15T07:16:04;2.70;99.90
15951;DHT22;8074;48.112;11.570;2022-11-15T07:18:33;2.80;99.90
15951;DHT22;8074;48.112;11.570;2022-11-15T07:21:02;2.80;99.90
15951;DHT22;8074;48.112;11.570;2022-11-15T07:23:31;3.00;99.90
15951;DHT22;8074;48.112;11.570;2022-11-15T07:26:00;3.20;99.90
15951;DHT22;8074;48.112;11.570;2022-11-15T07:28:27;3.20;99.90
15951;DHT22;8074;48.112;11.570;2022-11-15T07:30:55;3.30;99.90
15951;DHT22;8074;48.112;11.570;2022-11-15T07:33:22;3.30;99.90
15951;DHT22;8074;48.112;11.570;2022-11-15T07:35:49;3.90;99.90
15951;DHT22;8074;48.112;11.570;2022-11-15T07:38:16;4.80;99.90
15951;DHT22;8074;48.112;11.570;2022-11-15T07:40:46;5.30;99.90
15951;DHT22;8074;48.112;11.570;2022-11-15T07:43:14;5.60;99.90
15951;DHT22;8074;48.112;11.570;2022-11-15T07:45:43;6.00;99.90
15951;DHT22;8074;48.112;11.570;2022-11-15T07:48:15;5.90;99.90
15951;DHT22;8074;48.112;11.570;2022-11-15T07:50:43;6.00;99.90
15951;DHT22;8074;48.112;11.570;2022-11-15T07:53:15;6.10;99.90
15951;DHT22;8074;48.112;11.570;2022-11-15T07:55:42;6.10;99.90
15951;DHT22;8074;48.112;11.570;2022-11-15T07:58:11;6.10;99.90
15951;DHT22;8074;48.112;11.570;2022-11-15T08:00:39;6.20;99.90
15951;DHT22;8074;48.112;11.570;2022-11-15T08:03:07;7.40;99.90
15951;DHT22;8074;48.112;11.570;2022-11-15T08:05:36;7.80;99.90
15951;DHT22;8074;48.112;11.570;2022-11-15T08:08:03;7.70;99.90
15951;DHT22;8074;48.112;11.570;2022-11-15T08:10:31;7.40;99.90
15951;DHT22;8074;48.112;11.570;2022-11-15T08:13:00;7.40;99.90
15951;DHT22;8074;48.112;11.570;2022-11-15T08:15:27;7.40;99.90
15951;DHT22;8074;48.112;11.570;2022-11-15T08:17:56;7.90;99.90
15951;DHT22;8074;48.112;11.570;2022-11-15T08:20:23;8.30;99.90
15951;DHT22;8074;48.112;11.570;2022-11-15T08:22:50;8.60;99.90
15951;DHT22;8074;48.112;11.570;2022-11-15T08:25:18;8.90;99.90
15951;DHT22;8074;48.112;11.570;2022-11-15T08:27:45;9.10;99.90
15951;DHT22;8074;48.112;11.570;2022-11-15T08:30:12;9.50;99.90
15951;DHT22;8074;48.112;11.570;2022-11-15T08:32:41;10.30;99.90
15951;DHT22;8074;48.112;11.570;2022-11-15T08:35:10;10.30;99.90
15951;DHT22;8074;48.112;11.570;2022-11-15T08:37:38;11.00;99.90
15951;DHT22;8074;48.112;11.570;2022-11-15T08:40:08;12.40;99.90
15951;DHT22;8074;48.112;11.570;2022-11-15T08:42:36;12.40;99.90
15951;DHT22;8074;48.112;11.570;2022-11-15T08:45:03;12.80;99.90
15951;DHT22;8074;48.112;11.570;2022-11-15T08:47:30;13.10;99.90
15951;DHT22;8074;48.112;11.570;2022-11-15T08:49:57;13.20;99.90
15951;DHT22;8074;48.112;11.570;2022-11-15T08:52:29;13.30;99.90
15951;DHT22;8074;48.112;11.570;2022-11-15T08:54:55;13.40;99.90
15951;DHT22;8074;48.112;11.570;2022-11-15T08:57:22;13.30;99.90
15951;DHT22;8074;48.112;11.570;2022-11-15T08:59:49;13.20;99.90
15951;DHT22;8074;48.112;11.570;2022-11-15T09:02:16;13.50;99.90
15951;DHT22;8074;48.112;11.570;2022-11-15T09:04:44;14.40;99.90
15951;DHT22;8074;48.112;11.570;2022-11-15T09:07:11;15.10;99.90
15951;DHT22;8074;48.112;11.570;2022-11-15T09:09:40;15.80;99.90
15951;DHT22;8074;48.112;11.570;2022-11-15T09:12:09;15.40;99.90
15951;DHT22;8074;48.112;11.570;2022-11-15T09:14:36;14.80;99.90
15951;DHT22;8074;48.112;11.570;2022-11-15T09:17:06;14.70;99.90
15951;DHT22;8074;48.112;11.570;2022-11-15T09:19:34;15.20;99.90
15951;DHT22;8074;48.112;11.570;2022-11-15T09:22:05;15.30;99.90
15951;DHT22;8074;48.112;11.570;2022-11-15T09:24:35;14.80;99.90
15951;DHT22;8074;48.112;11.570;2022-11-15T09:27:09;14.80;99.90
15951;DHT22;8074;48.112;11.570;2022-11-15T09:29:36;15.20;99.90
15951;DHT22;8074;48.112;11.570;2022-11-15T09:32:04;15.80;99.90
15951;DHT22;8074;48.112;11.570;2022-11-15T09:34:31;16.70;99.90
15951;DHT22;8074;48.112;11.570;2022-11-15T09:36:58;16.90;99.90
15951;DHT22;8074;48.112;11.570;2022-11-15T09:39:25;16.60;99.90
15951;DHT22;8074;48.112;11.570;2022-11-15T09:42:12;15.90;99.90
15951;DHT22;8074;48.112;11.570;2022-11-15T09:44:59;16.60;99.90
15951;DHT22;8074;48.112;11.570;2022-11-15T09:50:41;18.10;99.90
15951;DHT22;8074;48.112;11.570;2022-11-15T09:53:12;18.10;99.90
15951;DHT22;8074;48.112;11.570;2022-11-15T09:55:53;17.60;99.90
15951;DHT22;8074;48.112;11.570;2022-11-15T09:58:27;17.50;99.90
15951;DHT22;8074;48.112;11.570;2022-11-15T10:00:58;17.30;99.90
15951;DHT22;8074;48.112;11.570;2022-11-15T10:03:28;17.00;99.90
15951;DHT22;8074;48.112;11.570;2022-11-15T10:06:00;17.70;99.90
15951;DHT22;8074;48.112;11.570;2022-11-15T10:08:37;17.20;99.90
15951;DHT22;8074;48.112;11.570;2022-11-15T10:11:09;17.90;99.90
15951;DHT22;8074;48.112;11.570;2022-11-15T10:13:41;17.60;99.90
15951;DHT22;8074;48.112;11.570;2022-11-15T10:16:17;17.50;99.90
15951;DHT22;8074;48.112;11.570;2022-11-15T10:18:58;18.10;99.90
15951;DHT22;8074;48.112;11.570;2022-11-15T10:21:35;18.60;99.90
15951;DHT22;8074;48.112;11.570;2022-11-15T10:24:10;19.10;99.90
15951;DHT22;8074;48.112;11.570;2022-11-15T10:26:38;19.10;99.90
15951;DHT22;8074;48.112;11.570;2022-11-15T10:29:07;19.10;99.90
15951;DHT22;8074;48.112;11.570;2022-11-15T10:31:37;17.80;99.90
15951;DHT22;8074;48.112;11.570;2022-11-15T10:34:13;17.80;99.90
15951;DHT22;8074;48.112;11.570;2022-11-15T10:36:44;19.10;99.90
15951;DHT22;8074;48.112;11.570;2022-11-15T10:39:13;19.90;99.90
15951;DHT22;8074;48.112;11.570;2022-11-15T10:41:42;19.90;99.90
15951;DHT22;8074;48.112;11.570;2022-11-15T10:44:42;19.40;99.90
15951;DHT22;8074;48.112;11.570;2022-11-15T10:47:46;18.70;99.90
15951;DHT22;8074;48.112;11.570;2022-11-15T10:50:30;17.30;99.90
15951;DHT22;8074;48.112;11.570;2022-11-15T10:52:58;16.10;99.90
15951;DHT22;8074;48.112;11.570;2022-11-15T10:55:53;15.60;99.90
15951;DHT22;8074;48.112;11.570;2022-11-15T10:58:37;15.80;99.90
15951;DHT22;8074;48.112;11.570;2022-11-15T11:01:16;16.20;99.90
15951;DHT22;8074;48.112;11.570;2022-11-15T11:04:08;17.40;99.90
15951;DHT22;8074;48.112;11.570;2022-11-15T11:06:46;17.50;99.90
15951;DHT22;8074;48.112;11.570;2022-11-15T11:09:23;17.70;99.90
15951;DHT22;8074;48.112;11.570;2022-11-15T11:11:52;18.30;99.90
15951;DHT22;8074;48.112;11.570;2022-11-15T11:14:21;18.50;99.90
15951;DHT22;8074;48.112;11.570;2022-11-15T11:17:04;19.20;99.90
15951;DHT22;8074;48.112;11.570;2022-11-15T11:19:59;19.30;99.90
15951;DHT22;8074;48.112;11.570;2022-11-15T11:22:54;20.00;99.90
15951;DHT22;8074;48.112;11.570;2022-11-15T11:25:56;19.90;99.90
15951;DHT22;8074;48.112;11.570;2022-11-15T11:28:55;18.80;99.90
15951;DHT22;8074;48.112;11.570;2022-11-15T11:31:50;18.90;99.90
15951;DHT22;8074;48.112;11.570;2022-11-15T11:34:53;19.20;99.90
15951;DHT22;8074;48.112;11.570;2022-11-15T11:37:26;18.90;99.90
15951;DHT22;8074;48.112;11.570;2022-11-15T11:40:08;18.60;99.90
15951;DHT22;8074;48.112;11.570;2022-11-15T11:42:45;18.50;99.90
15951;DHT22;8074;48.112;11.570;2022-11-15T11:45:30;19.10;99.90
15951;DHT22;8074;48.112;11.570;2022-11-15T11:48:07;19.50;99.90
15951;DHT22;8074;48.112;11.570;2022-11-15T11:53:48;18.40;99.90
15951;DHT22;8074;48.112;11.570;2022-11-15T11:56:26;18.50;99.90
15951;DHT22;8074;48.112;11.570;2022-11-15T11:59:36;19.40;99.90
15951;DHT22;8074;48.112;11.570;2022-11-15T12:02:20;20.40;99.90
15951;DHT22;8074;48.112;11.570;2022-11-15T12:04:51;21.40;99.90
15951;DHT22;8074;48.112;11.570;2022-11-15T12:07:28;22.00;99.90
15951;DHT22;8074;48.112;11.570;2022-11-15T12:10:23;21.60;99.90
15951;DHT22;8074;48.112;11.570;2022-11-15T12:12:58;22.10;99.90
15951;DHT22;8074;48.112;11.570;2022-11-15T12:15:36;22.30;99.90
15951;DHT22;8074;48.112;11.570;2022-11-15T12:18:12;21.90;99.90
15951;DHT22;8074;48.112;11.570;2022-11-15T12:20:56;21.90;99.90
15951;DHT22;8074;48.112;11.570;2022-11-15T12:23:47;21.20;99.90
15951;DHT22;8074;48.112;11.570;2022-11-15T12:32:57;21.10;99.90
15951;DHT22;8074;48.112;11.570;2022-11-15T12:35:30;20.50;99.90
15951;DHT22;8074;48.112;11.570;2022-11-15T12:41:36;21.60;99.90
15951;DHT22;8074;48.112;11.570;2022-11-15T12:47:47;20.90;99.90
15951;DHT22;8074;48.112;11.570;2022-11-15T12:50:54;19.90;99.90
15951;DHT22;8074;48.112;11.570;2022-11-15T12:53:33;20.00;99.90
15951;DHT22;8074;48.112;11.570;2022-11-15T12:59:47;21.90;99.90
15951;DHT22;8074;48.112;11.570;2022-11-15T13:02:21;22.40;99.90
15951;DHT22;8074;48.112;11.570;2022-11-15T13:04:50;22.40;99.90
15951;DHT22;8074;48.112;11.570;2022-11-15T13:10:35;23.10;99.90
15951;DHT22;8074;48.112;11.570;2022-11-15T13:13:07;22.90;99.90
15951;DHT22;8074;48.112;11.570;2022-11-15T13:15:55;22.60;99.90
15951;DHT22;8074;48.112;11.570;2022-11-15T13:18:36;23.30;99.90
15951;DHT22;8074;48.112;11.570;2022-11-15T13:24:52;24.20;99.90
15951;DHT22;8074;48.112;11.570;2022-11-15T13:27:31;23.50;99.90
15951;DHT22;8074;48.112;11.570;2022-11-15T13:30:22;25.10;99.90
15951;DHT22;8074;48.112;11.570;2022-11-15T13:32:53;26.10;99.90
15951;DHT22;8074;48.112;11.570;2022-11-15T13:36:12;27.00;99.90
15951;DHT22;8074;48.112;11.570;2022-11-15T13:38:58;26.10;99.90
15951;DHT22;8074;48.112;11.570;2022-11-15T13:44:35;24.50;99.90
15951;DHT22;8074;48.112;11.570;2022-11-15T13:47:31;25.20;99.90
15951;DHT22;8074;48.112;11.570;2022-11-15T13:50:32;25.70;99.90
15951;DHT22;8074;48.112;11.570;2022-11-15T13:53:06;25.40;99.90
15951;DHT22;8074;48.112;11.570;2022-11-15T13:55:36;25.20;99.90
15951;DHT22;8074;48.112;11.570;2022-11-15T13:58:05;24.70;99.90
15951;DHT22;8074;48.112;11.570;2022-11-15T14:00:39;24.00;99.90
15951;DHT22;8074;48.112;11.570;2022-11-15T14:03:31;23.90;99.90
15951;DHT22;8074;48.112;11.570;2022-11-15T14:06:27;24.20;99.90
15951;DHT22;8074;48.112;11.570;2022-11-15T14:09:03;23.60;99.90
15951;DHT22;8074;48.112;11.570;2022-11-15T14:11:56;22.80;99.90
15951;DHT22;8074;48.112;11.570;2022-11-15T14:14:25;23.20;99.90
15951;DHT22;8074;48.112;11.570;2022-11-15T14:17:00;23.50;99.90
15951;DHT22;8074;48.112;11.570;2022-11-15T14:19:55;23.90;99.90
15951;DHT22;8074;48.112;11.570;2022-11-15T14:22:50;24.50;99.90
15951;DHT22;8074;48.112;11.570;2022-11-15T14:25:21;23.90;99.90
15951;DHT22;8074;48.112;11.570;2022-11-15T14:28:08;23.00;99.90
15951;DHT22;8074;48.112;11.570;2022-11-15T14:30:35;21.40;99.90
15951;DHT22;8074;48.112;11.570;2022-11-15T14:33:19;21.80;99.90
15951;DHT22;8074;48.112;11.570;2022-11-15T14:35:46;21.30;99.90
15951;DHT22;8074;48.112;11.570;2022-11-15T14:38:15;20.70;99.90
15951;DHT22;8074;48.112;11.570;2022-11-15T14:40:43;19.70;99.90
15951;DHT22;8074;48.112;11.570;2022-11-15T14:43:12;19.60;99.90
15951;DHT22;8074;48.112;11.570;2022-11-15T14:45:47;19.00;99.90
15951;DHT22;8074;48.112;11.570;2022-11-15T14:48:43;18.50;99.90
15951;DHT22;8074;48.112;11.570;2022-11-15T14:51:27;17.80;99.90
15951;DHT22;8074;48.112;11.570;2022-11-15T14:54:03;17.10;99.90
15951;DHT22;8074;48.112;11.570;2022-11-15T14:56:30;16.70;99.90
15951;DHT22;8074;48.112;11.570;2022-11-15T14:58:57;16.20;99.90
15951;DHT22;8074;48.112;11.570;2022-11-15T15:01:25;16.00;99.90
15951;DHT22;8074;48.112;11.570;2022-11-15T15:03:57;15.40;99.90
15951;DHT22;8074;48.112;11.570;2022-11-15T15:06:25;14.50;99.90
15951;DHT22;8074;48.112;11.570;2022-11-15T15:09:06;14.40;99.90
15951;DHT22;8074;48.112;11.570;2022-11-15T15:11:33;14.10;99.90
15951;DHT22;8074;48.112;11.570;2022-11-15T15:14:01;14.00;99.90
15951;DHT22;8074;48.112;11.570;2022-11-15T15:16:31;14.10;99.90
15951;DHT22;8074;48.112;11.570;2022-11-15T15:19:22;13.50;99.90
15951;DHT22;8074;48.112;11.570;2022-11-15T15:22:05;13.50;99.90
15951;DHT22;8074;48.112;11.570;2022-11-15T15:24:33;13.30;99.90
15951;DHT22;8074;48.112;11.570;2022-11-15T15:27:02;13.10;99.90
15951;DHT22;8074;48.112;11.570;2022-11-15T15:29:29;13.00;99.90
15951;DHT22;8074;48.112;11.570;2022-11-15T15:32:04;12.30;99.90
15951;DHT22;8074;48.112;11.570;2022-11-15T15:34:49;12.30;99.90
15951;DHT22;8074;48.112;11.570;2022-11-15T15:37:22;12.10;99.90
15951;DHT22;8074;48.112;11.570;2022-11-15T15:39:50;11.90;99.90
15951;DHT22;8074;48.112;11.570;2022-11-15T15:42:18;11.60;99.90
15951;DHT22;8074;48.112;11.570;2022-11-15T15:44:49;11.60;99.90
15951;DHT22;8074;48.112;11.570;2022-11-15T15:47:20;11.60;99.90
15951;DHT22;8074;48.112;11.570;2022-11-15T15:50:03;11.50;99.90
15951;DHT22;8074;48.112;11.570;2022-11-15T15:52:31;11.30;99.90
15951;DHT22;8074;48.112;11.570;2022-11-15T15:54:58;11.00;99.90
15951;DHT22;8074;48.112;11.570;2022-11-15T15:57:25;11.00;99.90
15951;DHT22;8074;48.112;11.570;2022-11-15T15:59:55;11.00;99.90
15951;DHT22;8074;48.112;11.570;2022-11-15T16:02:31;11.30;99.90
15951;DHT22;8074;48.112;11.570;2022-11-15T16:04:59;11.40;99.90
15951;DHT22;8074;48.112;11.570;2022-11-15T16:08:22;11.40;99.90
15951;DHT22;8074;48.112;11.570;2022-11-15T16:10:51;11.40;99.90
15951;DHT22;8074;48.112;11.570;2022-11-15T16:13:18;11.10;99.90
15951;DHT22;8074;48.112;11.570;2022-11-15T16:15:52;11.00;99.90
15951;DHT22;8074;48.112;11.570;2022-11-15T16:21:47;11.20;99.90
15951;DHT22;8074;48.112;11.570;2022-11-15T16:24:29;11.20;99.90
15951;DHT22;8074;48.112;11.570;2022-11-15T16:26:59;11.20;99.90
15951;DHT22;8074;48.112;11.570;2022-11-15T16:29:26;10.90;99.90
15951;DHT22;8074;48.112;11.570;2022-11-15T16:31:54;10.60;99.90
15951;DHT22;8074;48.112;11.570;2022-11-15T16:34:35;10.60;99.90
15951;DHT22;8074;48.112;11.570;2022-11-15T16:37:02;10.50;99.90
15951;DHT22;8074;48.112;11.570;2022-11-15T16:39:30;10.40;99.90
15951;DHT22;8074;48.112;11.570;2022-11-15T16:41:58;10.60;99.90
15951;DHT22;8074;48.112;11.570;2022-11-15T16:44:29;10.70;99.90
15951;DHT22;8074;48.112;11.570;2022-11-15T16:46:56;10.60;99.90
15951;DHT22;8074;48.112;11.570;2022-11-15T16:49:23;10.20;99.90
15951;DHT22;8074;48.112;11.570;2022-11-15T16:51:51;10.10;99.90